createdAt,value
2017-12-04T00:04:42.638Z,24.67
2017-12-04T00:10:46.275Z,23.33
2017-12-04T00:16:49.877Z,31.87
2017-12-04T00:22:53.732Z,31.83
2017-12-04T00:28:58.232Z,28.83
2017-12-04T00:35:01.787Z,25.40
2017-12-04T00:41:05.423Z,24.23
2017-12-04T00:47:09.009Z,19.40
2017-12-04T00:53:13.314Z,23.57
2017-12-04T00:59:16.844Z,21.37
2017-12-04T01:05:20.616Z,21.53
2017-12-04T01:11:24.178Z,18.33
2017-12-04T01:17:27.732Z,13.80
2017-12-04T01:23:31.335Z,19.93
2017-12-04T01:29:34.951Z,20.10
2017-12-04T01:35:38.613Z,20.73
2017-12-04T01:41:42.149Z,27.13
2017-12-04T01:47:46.552Z,22.40
2017-12-04T01:53:50.130Z,26.17
2017-12-04T01:59:54.408Z,27.83
2017-12-04T02:05:58.274Z,33.00
2017-12-04T02:12:01.878Z,37.80
2017-12-04T02:18:05.416Z,30.83
2017-12-04T02:24:09.722Z,27.53
2017-12-04T02:30:13.233Z,31.53
2017-12-04T02:36:17.539Z,29.40
2017-12-04T02:42:21.164Z,22.40
2017-12-04T02:48:25.584Z,15.90
2017-12-04T02:54:29.462Z,17.43
2017-12-04T03:00:33.108Z,24.67
2017-12-04T03:06:37.627Z,22.63
2017-12-04T03:12:41.991Z,19.70
2017-12-04T03:18:45.588Z,31.03
2017-12-04T03:24:49.130Z,24.83
2017-12-04T03:30:52.826Z,27.50
2017-12-04T03:36:56.373Z,33.57
2017-12-04T03:42:59.953Z,27.77
2017-12-04T03:49:03.519Z,38.07
2017-12-04T03:55:07.235Z,34.87
2017-12-04T04:01:10.802Z,43.03
2017-12-04T04:07:14.582Z,41.17
2017-12-04T04:13:18.159Z,32.57
2017-12-04T04:19:21.750Z,35.87
2017-12-04T04:25:26.219Z,38.67
2017-12-04T04:31:30.522Z,31.00
2017-12-04T04:37:34.092Z,33.53
2017-12-04T04:43:37.741Z,33.00
2017-12-04T04:49:42.041Z,32.17
2017-12-04T04:55:45.588Z,40.50
2017-12-04T05:01:49.137Z,33.80
2017-12-04T05:07:52.870Z,34.33
2017-12-04T05:13:56.413Z,34.73
2017-12-04T05:19:59.952Z,40.00
2017-12-04T05:26:04.278Z,28.97
2017-12-04T05:32:07.802Z,37.40
2017-12-04T05:38:11.401Z,37.33
2017-12-04T05:44:14.915Z,30.60
2017-12-04T05:50:18.566Z,25.13
2017-12-04T05:56:22.289Z,27.53
2017-12-04T06:02:26.289Z,29.60
2017-12-04T06:08:29.835Z,18.50
2017-12-04T06:14:34.355Z,21.77
2017-12-04T06:20:37.901Z,13.07
2017-12-04T06:26:41.434Z,18.83
2017-12-04T06:32:46.734Z,12.60
2017-12-04T06:38:50.501Z,20.70
2017-12-04T06:44:54.357Z,16.07
2017-12-04T06:50:58.047Z,22.63
2017-12-04T06:57:01.933Z,15.70
2017-12-04T07:03:05.593Z,27.73
2017-12-04T07:09:09.248Z,10.83
2017-12-04T07:15:12.815Z,23.73
2017-12-04T07:21:17.221Z,16.20
2017-12-04T07:27:22.332Z,14.10
2017-12-04T07:33:26.403Z,17.33
2017-12-04T07:39:30.063Z,10.00
2017-12-04T07:45:33.611Z,5.17
2017-12-04T07:51:37.455Z,8.03
2017-12-04T07:57:41.298Z,17.27
2017-12-04T08:03:46.010Z,18.00
2017-12-04T08:09:49.526Z,9.40
2017-12-04T08:15:53.105Z,10.00
2017-12-04T08:21:57.406Z,19.73
2017-12-04T08:28:01.718Z,5.10
2017-12-04T08:34:06.109Z,9.93
2017-12-04T08:40:10.426Z,13.73
2017-12-04T08:46:13.964Z,10.93
2017-12-04T08:52:17.501Z,5.57
2017-12-04T08:58:21.841Z,11.90
2017-12-04T09:04:26.224Z,21.73
2017-12-04T09:10:29.883Z,14.23
2017-12-04T09:16:34.198Z,12.53
2017-12-04T09:22:37.734Z,14.53
2017-12-04T09:28:42.021Z,20.93
2017-12-04T09:34:45.776Z,19.80
2017-12-04T09:40:49.571Z,11.17
2017-12-04T09:46:53.256Z,7.70
2017-12-04T09:52:56.872Z,9.60
2017-12-04T09:59:00.398Z,14.43
2017-12-04T10:05:04.809Z,12.83
2017-12-04T10:11:08.377Z,7.13
2017-12-04T10:17:12.007Z,13.90
2017-12-04T10:23:15.568Z,8.33
2017-12-04T10:29:19.128Z,14.07
2017-12-04T10:35:24.296Z,11.23
2017-12-04T10:41:27.950Z,13.47
2017-12-04T10:47:31.495Z,11.10
2017-12-04T10:53:35.794Z,6.60
2017-12-04T10:59:39.431Z,12.03
2017-12-04T11:05:43.045Z,9.67
2017-12-04T11:11:46.587Z,6.83
2017-12-04T11:17:50.133Z,9.53
2017-12-04T11:23:54.083Z,7.93
2017-12-04T11:29:57.631Z,7.33
2017-12-04T11:36:01.344Z,7.13
2017-12-04T11:42:05.647Z,8.70
2017-12-04T11:48:09.931Z,18.20
2017-12-04T11:54:13.453Z,12.53
2017-12-04T12:00:17.049Z,10.63
2017-12-04T12:06:20.621Z,12.20
2017-12-04T12:12:24.324Z,15.27
2017-12-04T12:18:28.802Z,12.57
2017-12-04T12:24:32.340Z,17.40
2017-12-04T12:30:35.882Z,10.50
2017-12-04T12:36:39.414Z,7.43
2017-12-04T12:42:43.155Z,8.90
2017-12-04T12:48:46.728Z,18.53
2017-12-04T12:54:50.515Z,11.27
2017-12-04T13:00:54.470Z,15.53
2017-12-04T13:06:58.039Z,18.70
2017-12-04T13:13:01.596Z,14.63
2017-12-04T13:19:05.342Z,8.87
2017-12-04T13:25:08.862Z,6.73
2017-12-04T13:31:12.374Z,18.33
2017-12-04T13:37:21.693Z,7.87
2017-12-04T13:43:26.007Z,17.50
2017-12-04T13:49:29.541Z,9.33
2017-12-04T13:55:33.055Z,8.97
2017-12-04T14:01:36.585Z,11.63
2017-12-04T14:07:40.105Z,5.43
2017-12-04T14:13:43.691Z,5.00
2017-12-04T14:19:47.195Z,19.33
2017-12-04T14:25:51.473Z,10.37
2017-12-04T14:31:55.769Z,16.70
2017-12-04T14:37:59.267Z,9.63
2017-12-04T14:44:02.769Z,16.60
2017-12-04T14:50:06.278Z,10.97
2017-12-04T14:56:09.848Z,6.60
2017-12-04T15:02:13.370Z,21.50
2017-12-04T15:08:16.876Z,52.93
2017-12-04T15:14:20.363Z,8.80
2017-12-04T15:20:24.719Z,16.93
2017-12-04T15:26:28.237Z,16.97
2017-12-04T15:32:32.580Z,15.60
2017-12-04T15:38:36.148Z,19.90
2017-12-04T15:44:39.644Z,8.97
2017-12-04T15:50:43.158Z,12.60
2017-12-04T15:56:46.794Z,6.53
2017-12-04T16:02:50.309Z,15.87
2017-12-04T16:08:54.261Z,14.83
2017-12-04T16:14:59.373Z,47.00
2017-12-04T16:21:02.915Z,12.77
2017-12-04T16:27:07.282Z,15.83
2017-12-04T16:33:11.560Z,16.90
2017-12-04T16:39:15.843Z,19.07
2017-12-04T16:45:19.397Z,17.10
2017-12-04T16:51:23.101Z,25.90
2017-12-04T16:57:26.632Z,17.87
2017-12-04T17:03:30.144Z,24.63
2017-12-04T17:09:34.502Z,16.40
2017-12-04T17:15:38.054Z,18.83
2017-12-04T17:21:43.108Z,20.00
2017-12-04T17:27:46.655Z,16.40
2017-12-04T17:33:50.341Z,12.73
2017-12-04T17:39:54.238Z,14.67
2017-12-04T17:45:58.007Z,21.00
2017-12-04T17:52:02.340Z,32.23
2017-12-04T17:58:05.888Z,17.20
2017-12-04T18:04:09.484Z,29.77
2017-12-04T18:10:13.759Z,18.00
2017-12-04T18:16:18.074Z,21.57
2017-12-04T18:22:21.846Z,25.33
2017-12-04T18:28:25.451Z,42.40
2017-12-04T18:34:29.722Z,23.30
2017-12-04T18:40:34.025Z,31.87
2017-12-04T18:46:37.543Z,19.70
2017-12-04T18:52:41.937Z,19.00
2017-12-04T18:58:46.223Z,21.50
2017-12-04T19:04:49.766Z,18.03
2017-12-04T19:10:53.377Z,15.80
2017-12-04T19:16:57.136Z,15.43
2017-12-04T19:23:00.681Z,13.23
2017-12-04T19:29:04.206Z,12.07
2017-12-04T19:35:07.730Z,12.43
2017-12-04T19:41:11.998Z,13.47
2017-12-04T19:47:16.311Z,13.93
2017-12-04T19:53:19.856Z,19.97
2017-12-04T19:59:23.487Z,9.80
2017-12-04T20:05:27.741Z,13.30
2017-12-04T20:11:31.280Z,12.97
2017-12-04T20:17:34.917Z,14.07
2017-12-04T20:23:38.439Z,12.20
2017-12-04T20:29:41.964Z,16.00
2017-12-04T20:35:45.512Z,14.77
2017-12-04T20:41:49.027Z,6.73
2017-12-04T20:47:52.560Z,5.13
2017-12-04T20:53:56.408Z,8.20
2017-12-04T20:59:59.931Z,14.33
2017-12-04T21:06:03.443Z,15.90
2017-12-04T21:12:06.987Z,14.67
2017-12-04T21:18:10.543Z,8.23
2017-12-04T21:24:14.843Z,7.47
2017-12-04T21:30:18.354Z,17.53
2017-12-04T21:36:22.892Z,21.27
2017-12-04T21:42:26.452Z,20.70
2017-12-04T21:48:30.160Z,14.87
2017-12-04T21:54:33.702Z,14.53
2017-12-04T22:00:38.003Z,18.93
2017-12-04T22:06:41.506Z,27.73
2017-12-04T22:12:45.155Z,12.67
2017-12-04T22:18:48.900Z,17.57
2017-12-04T22:24:52.710Z,22.93
2017-12-04T22:30:56.991Z,19.37
2017-12-04T22:37:01.312Z,10.50
2017-12-04T22:43:04.854Z,13.07
2017-12-04T22:49:09.162Z,12.17
2017-12-04T22:55:12.676Z,13.67
2017-12-04T23:01:16.192Z,29.40
2017-12-04T23:07:19.694Z,21.53
2017-12-04T23:13:23.418Z,18.20
2017-12-04T23:19:27.075Z,23.77
2017-12-04T23:25:31.768Z,15.53
2017-12-04T23:31:35.267Z,14.73
2017-12-04T23:37:38.875Z,20.37
2017-12-04T23:43:42.456Z,14.63
2017-12-04T23:49:46.016Z,16.17
2017-12-04T23:55:49.593Z,17.83
